createdAt,value
2022-10-07T00:00:52.031Z,7.90
2022-10-07T00:03:20.547Z,8.00
2022-10-07T00:05:48.045Z,8.00
2022-10-07T00:08:14.966Z,8.10
2022-10-07T00:10:43.260Z,8.20
2022-10-07T00:13:12.192Z,8.10
2022-10-07T00:15:39.360Z,8.00
2022-10-07T00:18:06.617Z,8.00
2022-10-07T00:20:40.580Z,8.10
2022-10-07T00:23:08.194Z,8.20
2022-10-07T00:25:38.153Z,8.10
2022-10-07T00:28:06.101Z,7.90
2022-10-07T00:30:33.398Z,8.00
2022-10-07T00:33:00.576Z,8.00
2022-10-07T00:35:27.393Z,7.90
2022-10-07T00:37:54.167Z,7.80
2022-10-07T00:40:21.180Z,7.90
2022-10-07T00:42:47.989Z,8.10
2022-10-07T00:45:16.232Z,8.10
2022-10-07T00:47:48.940Z,8.20
2022-10-07T00:50:26.531Z,8.10
2022-10-07T00:52:59.653Z,8.10
2022-10-07T00:55:29.679Z,8.10
2022-10-07T00:57:59.786Z,8.10
2022-10-07T01:00:26.635Z,8.00
2022-10-07T01:02:53.615Z,7.90
2022-10-07T01:05:20.939Z,7.90
2022-10-07T01:07:50.338Z,7.90
2022-10-07T01:10:20.197Z,8.00
2022-10-07T01:13:07.418Z,8.00
2022-10-07T01:15:43.080Z,8.00
2022-10-07T01:18:24.274Z,8.00
2022-10-07T01:21:02.935Z,8.00
2022-10-07T01:23:42.239Z,8.00
2022-10-07T01:26:39.145Z,8.00
2022-10-07T01:29:26.324Z,7.90
2022-10-07T01:32:12.976Z,7.90
2022-10-07T01:34:42.962Z,7.90
2022-10-07T01:37:15.160Z,7.90
2022-10-07T01:39:57.002Z,8.00
2022-10-07T01:42:26.272Z,7.90
2022-10-07T01:44:56.214Z,7.70
2022-10-07T01:47:24.859Z,7.70
2022-10-07T01:49:51.610Z,7.70
2022-10-07T01:52:51.559Z,7.60
2022-10-07T01:55:28.406Z,7.60
2022-10-07T01:58:26.300Z,7.60
2022-10-07T02:01:10.230Z,7.50
2022-10-07T02:03:46.647Z,7.60
2022-10-07T02:06:26.680Z,7.60
2022-10-07T02:08:55.640Z,7.60
2022-10-07T02:11:29.457Z,7.60
2022-10-07T02:14:11.928Z,7.50
2022-10-07T02:16:55.126Z,7.50
2022-10-07T02:19:34.778Z,7.40
2022-10-07T02:22:03.706Z,7.40
2022-10-07T02:24:34.290Z,7.30
2022-10-07T02:27:07.555Z,7.40
2022-10-07T02:29:36.945Z,7.30
2022-10-07T02:32:09.772Z,7.30
2022-10-07T02:34:39.461Z,7.10
2022-10-07T02:37:14.741Z,7.10
2022-10-07T02:39:43.544Z,7.00
2022-10-07T02:42:25.255Z,7.00
2022-10-07T02:45:13.347Z,7.00
2022-10-07T02:47:49.705Z,7.00
2022-10-07T02:50:22.418Z,7.10
2022-10-07T02:52:52.683Z,7.10
2022-10-07T02:55:24.615Z,7.00
2022-10-07T02:57:57.061Z,7.00
2022-10-07T03:00:23.878Z,6.90
2022-10-07T03:02:56.606Z,6.90
2022-10-07T03:05:25.894Z,6.90
2022-10-07T03:08:16.043Z,6.90
2022-10-07T03:10:43.114Z,7.00
2022-10-07T03:13:10.010Z,7.00
2022-10-07T03:15:42.107Z,6.90
2022-10-07T03:18:26.024Z,6.90
2022-10-07T03:20:55.334Z,6.90
2022-10-07T03:23:25.510Z,6.90
2022-10-07T03:25:54.748Z,7.00
2022-10-07T03:28:23.333Z,7.00
2022-10-07T03:30:50.808Z,7.00
2022-10-07T03:33:19.277Z,7.10
2022-10-07T03:35:46.099Z,7.10
2022-10-07T03:38:12.951Z,7.10
2022-10-07T03:40:40.077Z,7.20
2022-10-07T03:43:07.582Z,7.30
2022-10-07T03:45:37.359Z,7.30
2022-10-07T03:48:04.448Z,7.20
2022-10-07T03:50:31.203Z,7.10
2022-10-07T03:52:57.926Z,7.00
2022-10-07T03:55:24.674Z,7.10
2022-10-07T03:57:54.386Z,7.10
2022-10-07T04:00:26.054Z,7.10
2022-10-07T04:02:52.976Z,6.90
2022-10-07T04:05:21.277Z,7.00
2022-10-07T04:07:49.837Z,7.00
2022-10-07T04:10:18.702Z,6.90
2022-10-07T04:12:48.007Z,6.80
2022-10-07T04:15:15.174Z,6.80
2022-10-07T04:17:42.377Z,6.80
2022-10-07T04:20:09.917Z,6.80
2022-10-07T04:22:36.833Z,6.80
2022-10-07T04:25:24.281Z,6.80
2022-10-07T04:27:53.490Z,6.70
2022-10-07T04:30:21.618Z,6.80
2022-10-07T04:32:51.423Z,6.70
2022-10-07T04:35:20.032Z,6.70
2022-10-07T04:37:53.587Z,6.70
2022-10-07T04:40:21.746Z,6.70
2022-10-07T04:43:08.026Z,6.70
2022-10-07T04:45:35.935Z,6.70
2022-10-07T04:48:05.669Z,6.60
2022-10-07T04:50:38.557Z,6.50
2022-10-07T04:53:10.819Z,6.60
2022-10-07T04:55:40.001Z,6.50
2022-10-07T04:58:07.807Z,6.50
2022-10-07T05:00:35.762Z,6.50
2022-10-07T05:03:03.525Z,6.50
2022-10-07T05:05:30.302Z,6.50
2022-10-07T05:07:57.088Z,6.40
2022-10-07T05:10:23.925Z,6.50
2022-10-07T05:12:55.705Z,6.40
2022-10-07T05:15:23.491Z,6.30
2022-10-07T05:17:50.627Z,6.30
2022-10-07T05:20:17.427Z,6.30
2022-10-07T05:22:44.173Z,6.30
2022-10-07T05:25:10.893Z,6.20
2022-10-07T05:27:37.706Z,6.30
2022-10-07T05:30:04.875Z,6.20
2022-10-07T05:32:32.479Z,6.20
2022-10-07T05:34:59.221Z,6.10
2022-10-07T05:37:26.048Z,6.10
2022-10-07T05:39:52.921Z,6.10
2022-10-07T05:42:19.895Z,6.10
2022-10-07T05:44:46.736Z,6.10
2022-10-07T05:47:15.809Z,6.10
2022-10-07T05:49:43.080Z,6.10
2022-10-07T05:52:09.844Z,6.10
2022-10-07T05:54:36.595Z,6.20
2022-10-07T05:57:03.495Z,6.40
2022-10-07T05:59:31.214Z,6.40
2022-10-07T06:02:00.120Z,6.40
2022-10-07T06:04:29.883Z,6.40
2022-10-07T06:06:56.598Z,6.50
2022-10-07T06:09:42.046Z,6.40
2022-10-07T06:12:28.987Z,6.40
2022-10-07T06:14:55.704Z,6.50
2022-10-07T06:17:22.419Z,6.60
2022-10-07T06:19:49.155Z,6.60
2022-10-07T06:22:16.930Z,6.50
2022-10-07T06:24:43.736Z,6.40
2022-10-07T06:27:10.519Z,6.40
2022-10-07T06:29:37.231Z,6.40
2022-10-07T06:32:03.963Z,6.60
2022-10-07T06:34:30.723Z,6.80
2022-10-07T06:36:57.651Z,6.80
2022-10-07T06:39:24.371Z,6.80
2022-10-07T06:41:54.363Z,6.90
2022-10-07T06:44:21.392Z,6.90
2022-10-07T06:46:48.199Z,6.80
2022-10-07T06:49:14.914Z,6.80
2022-10-07T06:51:41.626Z,6.80
2022-10-07T06:54:08.430Z,6.90
2022-10-07T06:56:35.487Z,6.90
2022-10-07T06:59:03.209Z,6.90
2022-10-07T07:01:30.055Z,7.00
2022-10-07T07:03:57.184Z,7.10
2022-10-07T07:06:24.230Z,7.10
2022-10-07T07:08:51.496Z,7.30
2022-10-07T07:11:36.949Z,7.30
2022-10-07T07:14:14.113Z,7.30
2022-10-07T07:16:42.237Z,7.60
2022-10-07T07:19:11.991Z,7.60
2022-10-07T07:21:40.753Z,7.70
2022-10-07T07:24:07.804Z,7.60
2022-10-07T07:26:34.846Z,7.70
2022-10-07T07:29:03.747Z,7.80
2022-10-07T07:31:33.038Z,7.90
2022-10-07T07:34:02.390Z,7.90
2022-10-07T07:36:31.682Z,7.90
2022-10-07T07:39:00.526Z,7.90
2022-10-07T07:41:30.186Z,8.10
2022-10-07T07:43:59.109Z,8.00
2022-10-07T07:46:32.184Z,7.90
2022-10-07T07:48:58.919Z,8.10
2022-10-07T07:51:25.645Z,8.30
2022-10-07T07:53:52.438Z,8.20
2022-10-07T07:56:20.524Z,8.10
2022-10-07T07:58:47.710Z,8.20
2022-10-07T08:01:18.580Z,8.20
2022-10-07T08:03:47.508Z,8.30
2022-10-07T08:06:17.621Z,8.30
2022-10-07T08:08:44.518Z,8.30
2022-10-07T08:11:14.255Z,8.30
2022-10-07T08:13:41.767Z,8.40
2022-10-07T08:16:09.349Z,8.60
2022-10-07T08:18:36.080Z,8.70
2022-10-07T08:21:05.045Z,8.80
2022-10-07T08:23:31.834Z,8.90
2022-10-07T08:26:00.142Z,9.10
2022-10-07T08:28:28.325Z,9.30
2022-10-07T08:30:55.814Z,9.30
2022-10-07T08:33:22.914Z,9.40
2022-10-07T08:35:51.691Z,9.50
2022-10-07T08:38:18.517Z,9.50
2022-10-07T08:40:53.475Z,9.60
2022-10-07T08:43:23.707Z,9.60
2022-10-07T08:45:52.696Z,9.80
2022-10-07T08:48:29.511Z,9.90
2022-10-07T08:51:22.825Z,10.10
2022-10-07T08:53:52.739Z,10.30
2022-10-07T08:56:23.259Z,10.40
2022-10-07T08:59:13.785Z,10.50
2022-10-07T09:01:52.426Z,10.60
2022-10-07T09:04:25.199Z,10.60
2022-10-07T09:07:02.459Z,10.60
2022-10-07T09:09:54.955Z,10.80
2022-10-07T09:12:30.359Z,10.80
2022-10-07T09:14:59.235Z,11.00
2022-10-07T09:17:35.045Z,11.00
2022-10-07T09:20:09.923Z,11.10
2022-10-07T09:22:39.635Z,11.20
2022-10-07T09:25:13.340Z,11.30
2022-10-07T09:27:40.273Z,11.40
2022-10-07T09:30:07.684Z,11.40
2022-10-07T09:32:40.047Z,11.60
2022-10-07T09:35:11.583Z,11.80
2022-10-07T09:37:56.511Z,11.90
2022-10-07T09:41:04.561Z,12.10
2022-10-07T09:43:33.201Z,12.40
2022-10-07T09:46:01.322Z,12.50
2022-10-07T09:48:34.768Z,12.70
2022-10-07T09:51:16.514Z,12.80
2022-10-07T09:53:58.551Z,13.00
2022-10-07T09:56:38.604Z,13.20
2022-10-07T09:59:28.606Z,13.30
2022-10-07T10:02:13.598Z,13.30
2022-10-07T10:04:50.190Z,13.50
2022-10-07T10:07:27.270Z,13.50
2022-10-07T10:09:57.235Z,13.60
2022-10-07T10:12:25.109Z,13.80
2022-10-07T10:14:54.539Z,14.00
2022-10-07T10:17:30.038Z,14.10
2022-10-07T10:20:28.727Z,14.30
2022-10-07T10:22:56.675Z,14.50
2022-10-07T10:25:58.567Z,14.60
2022-10-07T10:29:07.144Z,14.80
2022-10-07T10:31:56.177Z,15.00
2022-10-07T10:34:38.252Z,15.30
2022-10-07T10:37:20.338Z,15.40
2022-10-07T10:39:58.982Z,15.40
2022-10-07T10:42:44.458Z,15.60
2022-10-07T10:45:40.687Z,15.80
2022-10-07T10:48:11.233Z,16.10
2022-10-07T10:51:02.852Z,16.30
2022-10-07T10:53:56.673Z,16.40
2022-10-07T10:56:27.023Z,16.50
2022-10-07T10:59:01.270Z,16.60
2022-10-07T11:01:34.965Z,16.80
2022-10-07T11:04:24.668Z,16.90
2022-10-07T11:07:07.315Z,17.00
2022-10-07T11:09:41.647Z,17.20
2022-10-07T11:12:30.505Z,17.40
2022-10-07T11:15:06.371Z,17.40
2022-10-07T11:17:37.463Z,17.80
2022-10-07T11:20:20.403Z,18.00
2022-10-07T11:22:57.037Z,18.20
2022-10-07T11:25:33.023Z,18.30
2022-10-07T11:28:13.235Z,18.30
2022-10-07T11:30:49.450Z,18.50
2022-10-07T11:33:35.935Z,18.90
2022-10-07T11:36:14.228Z,18.90
2022-10-07T11:38:42.613Z,19.20
2022-10-07T11:41:20.752Z,19.30
2022-10-07T11:43:53.745Z,19.30
2022-10-07T11:46:26.256Z,19.30
2022-10-07T11:49:04.989Z,19.30
2022-10-07T11:51:39.295Z,19.50
2022-10-07T11:54:13.518Z,19.50
2022-10-07T11:56:49.619Z,19.60
2022-10-07T11:59:31.699Z,19.80
2022-10-07T12:01:58.552Z,20.10
2022-10-07T12:04:33.892Z,20.50
2022-10-07T12:07:31.834Z,20.70
2022-10-07T12:10:04.892Z,20.80
2022-10-07T12:12:47.612Z,21.10
2022-10-07T12:15:28.991Z,21.60
2022-10-07T12:17:57.011Z,22.30
2022-10-07T12:20:44.915Z,22.90
2022-10-07T12:23:20.472Z,23.90
2022-10-07T12:25:58.806Z,24.60
2022-10-07T12:28:48.686Z,24.80
2022-10-07T12:31:15.634Z,25.80
2022-10-07T12:33:45.289Z,26.30
2022-10-07T12:36:31.316Z,26.20
2022-10-07T12:39:00.740Z,26.40
2022-10-07T12:41:40.490Z,26.70
2022-10-07T12:44:22.711Z,27.10
2022-10-07T12:46:54.092Z,27.40
2022-10-07T12:49:47.654Z,26.90
2022-10-07T12:52:24.135Z,26.80
2022-10-07T12:55:02.380Z,27.60
2022-10-07T12:57:39.323Z,27.70
2022-10-07T13:00:11.386Z,27.10
2022-10-07T13:02:57.076Z,26.10
2022-10-07T13:05:57.156Z,24.30
2022-10-07T13:08:36.083Z,23.60
2022-10-07T13:11:39.177Z,22.90
2022-10-07T13:14:26.402Z,22.80
2022-10-07T13:17:12.078Z,22.90
2022-10-07T13:19:54.966Z,22.80
2022-10-07T13:22:22.355Z,23.00
2022-10-07T13:24:54.371Z,22.90
2022-10-07T13:27:30.494Z,22.70
2022-10-07T13:30:00.009Z,22.80
2022-10-07T13:32:29.734Z,22.40
2022-10-07T13:34:58.439Z,22.20
2022-10-07T13:37:31.819Z,22.10
2022-10-07T13:40:30.923Z,22.10
2022-10-07T13:43:01.467Z,22.40
2022-10-07T13:45:33.289Z,22.60
2022-10-07T13:48:00.369Z,23.60
2022-10-07T13:50:30.627Z,23.20
2022-10-07T13:52:58.281Z,22.80
2022-10-07T13:55:35.938Z,22.40
2022-10-07T13:58:05.383Z,22.10
2022-10-07T14:00:36.004Z,21.80
2022-10-07T14:03:13.668Z,21.60
2022-10-07T14:05:51.912Z,21.40
2022-10-07T14:08:26.657Z,21.30
2022-10-07T14:11:06.392Z,21.20
2022-10-07T14:13:35.346Z,21.10
2022-10-07T14:16:02.111Z,21.00
2022-10-07T14:18:31.196Z,20.80
2022-10-07T14:21:09.437Z,20.80
2022-10-07T14:23:37.822Z,20.70
2022-10-07T14:26:14.175Z,20.70
2022-10-07T14:28:42.624Z,20.80
2022-10-07T14:31:29.792Z,20.70
2022-10-07T14:34:35.498Z,20.80
2022-10-07T14:37:17.264Z,21.20
2022-10-07T14:39:49.056Z,21.70
2022-10-07T14:42:36.159Z,21.70
2022-10-07T14:45:09.657Z,21.60
2022-10-07T14:47:36.421Z,21.60
2022-10-07T14:50:03.604Z,22.90
2022-10-07T14:52:46.786Z,23.90
2022-10-07T14:55:20.478Z,24.10
2022-10-07T14:57:48.085Z,24.10
2022-10-07T15:00:21.076Z,23.80
2022-10-07T15:02:50.287Z,23.30
2022-10-07T15:05:19.162Z,23.70
2022-10-07T15:07:46.522Z,24.00
2022-10-07T15:10:16.097Z,24.10
2022-10-07T15:12:44.326Z,24.20
2022-10-07T15:15:12.448Z,24.10
2022-10-07T15:17:40.069Z,24.00
2022-10-07T15:20:09.075Z,24.20
2022-10-07T15:22:36.270Z,24.00
2022-10-07T15:25:03.447Z,23.90
2022-10-07T15:27:31.551Z,23.90
2022-10-07T15:29:58.483Z,23.70
2022-10-07T15:32:25.315Z,23.80
2022-10-07T15:34:55.499Z,23.80
2022-10-07T15:37:22.546Z,23.50
2022-10-07T15:39:51.299Z,23.30
2022-10-07T15:42:18.804Z,23.20
2022-10-07T15:44:48.591Z,22.80
2022-10-07T15:47:15.509Z,22.30
2022-10-07T15:49:42.588Z,22.30
2022-10-07T15:52:11.641Z,22.30
2022-10-07T15:54:39.414Z,21.90
2022-10-07T15:57:08.229Z,21.70
2022-10-07T15:59:35.668Z,21.30
2022-10-07T16:02:04.212Z,20.80
2022-10-07T16:04:31.031Z,20.30
2022-10-07T16:06:58.073Z,19.80
2022-10-07T16:09:24.869Z,19.30
2022-10-07T16:11:51.686Z,18.80
2022-10-07T16:14:18.494Z,18.30
2022-10-07T16:16:46.098Z,18.00
2022-10-07T16:19:13.113Z,17.70
2022-10-07T16:21:42.162Z,17.40
2022-10-07T16:24:12.910Z,17.20
2022-10-07T16:26:39.660Z,16.90
2022-10-07T16:29:31.020Z,16.70
2022-10-07T16:31:59.119Z,16.40
2022-10-07T16:34:28.191Z,16.20
2022-10-07T16:36:56.578Z,16.00
2022-10-07T16:39:23.621Z,15.80
2022-10-07T16:41:52.173Z,15.70
2022-10-07T16:44:19.859Z,15.40
2022-10-07T16:46:47.230Z,15.30
2022-10-07T16:49:16.790Z,15.20
2022-10-07T16:51:44.715Z,15.00
2022-10-07T16:54:16.594Z,14.90
2022-10-07T16:56:49.875Z,14.90
2022-10-07T16:59:26.084Z,14.80
2022-10-07T17:01:55.473Z,14.70
2022-10-07T17:04:24.352Z,14.50
2022-10-07T17:06:51.223Z,14.40
2022-10-07T17:09:18.416Z,14.30
2022-10-07T17:11:45.612Z,14.20
2022-10-07T17:14:17.811Z,14.10
2022-10-07T17:16:47.472Z,13.90
2022-10-07T17:19:19.770Z,13.80
2022-10-07T17:21:47.896Z,13.90
2022-10-07T17:24:16.691Z,13.90
2022-10-07T17:26:44.554Z,13.90
2022-10-07T17:29:13.139Z,13.80
2022-10-07T17:31:47.989Z,13.60
2022-10-07T17:34:16.156Z,13.50
2022-10-07T17:36:46.979Z,13.40
2022-10-07T17:39:13.903Z,13.40
2022-10-07T17:41:40.754Z,13.40
2022-10-07T17:44:10.084Z,13.30
2022-10-07T17:46:39.202Z,13.30
2022-10-07T17:49:08.473Z,13.20
2022-10-07T17:51:37.041Z,13.10
2022-10-07T17:54:04.997Z,12.90
2022-10-07T17:56:32.052Z,12.80
2022-10-07T17:58:58.933Z,12.80
2022-10-07T18:01:32.784Z,12.60
2022-10-07T18:04:09.501Z,12.50
2022-10-07T18:06:37.902Z,12.30
2022-10-07T18:09:06.728Z,12.20
2022-10-07T18:11:53.061Z,12.10
2022-10-07T18:14:38.311Z,12.10
2022-10-07T18:17:06.165Z,12.10
2022-10-07T18:19:33.165Z,12.10
2022-10-07T18:21:59.912Z,12.10
2022-10-07T18:24:28.669Z,12.00
2022-10-07T18:26:59.795Z,12.00
2022-10-07T18:29:32.675Z,12.00
2022-10-07T18:32:00.146Z,11.90
2022-10-07T18:34:27.030Z,11.80
2022-10-07T18:36:56.617Z,11.80
2022-10-07T18:39:24.995Z,11.70
2022-10-07T18:41:51.690Z,11.60
2022-10-07T18:44:18.625Z,11.50
2022-10-07T18:46:45.441Z,11.40
2022-10-07T18:49:14.887Z,11.30
2022-10-07T18:51:41.949Z,11.30
2022-10-07T18:54:09.894Z,11.30
2022-10-07T18:56:40.851Z,11.30
2022-10-07T18:59:09.703Z,11.30
2022-10-07T19:01:37.359Z,11.30
2022-10-07T19:04:06.051Z,11.20
2022-10-07T19:06:35.170Z,11.20
2022-10-07T19:09:05.895Z,11.20
2022-10-07T19:11:32.933Z,11.10
2022-10-07T19:14:00.217Z,11.10
2022-10-07T19:16:29.269Z,11.00
2022-10-07T19:18:58.067Z,10.90
2022-10-07T19:21:26.010Z,10.80
2022-10-07T19:24:01.851Z,10.80
2022-10-07T19:26:33.903Z,10.80
2022-10-07T19:29:01.261Z,10.80
2022-10-07T19:31:31.020Z,10.60
2022-10-07T19:34:06.015Z,10.60
2022-10-07T19:36:36.344Z,10.60
2022-10-07T19:39:03.983Z,10.60
2022-10-07T19:41:32.570Z,10.50
2022-10-07T19:43:59.972Z,10.50
2022-10-07T19:46:29.233Z,10.40
2022-10-07T19:48:58.246Z,10.30
2022-10-07T19:51:27.115Z,10.30
2022-10-07T19:53:57.141Z,10.30
2022-10-07T19:56:32.330Z,10.30
2022-10-07T19:59:02.311Z,10.30
2022-10-07T20:01:32.142Z,10.20
2022-10-07T20:04:07.396Z,10.10
2022-10-07T20:06:38.755Z,10.10
2022-10-07T20:09:07.911Z,10.00
2022-10-07T20:11:34.968Z,10.00
2022-10-07T20:14:02.982Z,10.00
2022-10-07T20:16:31.391Z,9.90
2022-10-07T20:19:05.591Z,9.90
2022-10-07T20:21:35.401Z,9.80
2022-10-07T20:24:03.114Z,9.90
2022-10-07T20:26:35.627Z,9.80
2022-10-07T20:29:06.970Z,9.80
2022-10-07T20:31:36.339Z,9.80
2022-10-07T20:34:03.323Z,9.80
2022-10-07T20:36:36.311Z,9.80
2022-10-07T20:39:31.254Z,9.80
2022-10-07T20:42:16.607Z,9.80
2022-10-07T20:44:43.391Z,9.80
2022-10-07T20:47:10.932Z,9.80
2022-10-07T20:49:41.297Z,9.70
2022-10-07T20:52:21.075Z,9.60
2022-10-07T20:54:48.200Z,9.60
2022-10-07T20:57:17.534Z,9.60
2022-10-07T20:59:44.366Z,9.60
2022-10-07T21:02:13.107Z,9.50
2022-10-07T21:04:39.894Z,9.30
2022-10-07T21:07:08.157Z,9.30
2022-10-07T21:09:37.643Z,9.20
2022-10-07T21:12:07.366Z,9.20
2022-10-07T21:14:37.807Z,9.20
2022-10-07T21:17:06.297Z,9.20
2022-10-07T21:19:35.584Z,9.30
2022-10-07T21:22:03.805Z,9.30
2022-10-07T21:24:34.298Z,9.20
2022-10-07T21:27:05.837Z,9.20
2022-10-07T21:29:36.266Z,9.10
2022-10-07T21:32:06.401Z,9.00
2022-10-07T21:34:33.135Z,9.00
2022-10-07T21:37:00.118Z,8.90
2022-10-07T21:39:27.001Z,8.90
2022-10-07T21:41:54.302Z,8.80
2022-10-07T21:44:21.103Z,8.90
2022-10-07T21:46:47.887Z,8.90
2022-10-07T21:49:15.851Z,8.90
2022-10-07T21:51:43.605Z,8.90
2022-10-07T21:54:13.721Z,8.90
2022-10-07T21:56:40.705Z,8.90
2022-10-07T21:59:07.413Z,8.80
2022-10-07T22:01:34.237Z,8.80
2022-10-07T22:04:02.632Z,8.80
2022-10-07T22:06:50.341Z,8.80
2022-10-07T22:09:20.904Z,8.80
2022-10-07T22:11:48.756Z,8.80
2022-10-07T22:14:15.482Z,8.70
2022-10-07T22:16:42.523Z,8.70
2022-10-07T22:19:10.607Z,8.70
2022-10-07T22:21:40.099Z,8.70
2022-10-07T22:24:08.267Z,8.60
2022-10-07T22:26:46.781Z,8.60
2022-10-07T22:29:16.149Z,8.50
2022-10-07T22:31:43.100Z,8.50
2022-10-07T22:34:30.058Z,8.50
2022-10-07T22:36:58.100Z,8.50
2022-10-07T22:39:25.867Z,8.50
2022-10-07T22:41:53.192Z,8.40
2022-10-07T22:44:20.143Z,8.30
2022-10-07T22:46:46.857Z,8.30
2022-10-07T22:49:14.933Z,8.30
2022-10-07T22:51:42.492Z,8.30
2022-10-07T22:54:12.576Z,8.30
2022-10-07T22:56:39.520Z,8.20
2022-10-07T22:59:08.398Z,8.30
2022-10-07T23:01:35.400Z,8.30
2022-10-07T23:04:03.195Z,8.30
2022-10-07T23:06:32.946Z,8.20
2022-10-07T23:09:00.300Z,8.20
2022-10-07T23:11:28.925Z,8.20
2022-10-07T23:13:55.878Z,8.20
2022-10-07T23:16:25.766Z,8.10
2022-10-07T23:18:53.578Z,8.10
2022-10-07T23:21:26.103Z,8.00
2022-10-07T23:24:01.742Z,8.00
2022-10-07T23:26:31.561Z,8.10
2022-10-07T23:29:00.297Z,8.10
2022-10-07T23:31:29.292Z,8.00
2022-10-07T23:33:57.693Z,8.10
2022-10-07T23:36:25.511Z,8.00
2022-10-07T23:38:53.230Z,8.10
2022-10-07T23:41:24.907Z,8.00
2022-10-07T23:43:53.452Z,8.00
2022-10-07T23:46:21.957Z,8.00
2022-10-07T23:48:49.370Z,8.00
2022-10-07T23:51:18.762Z,8.10
2022-10-07T23:53:47.345Z,8.00
2022-10-07T23:56:14.492Z,8.10
2022-10-07T23:58:41.302Z,8.10
